Terminal Aerodrome Forecast
Issued by NWS

Home | Current Version | Previous Version | Text Only | Print | Product List | Glossary On
Versions: 1 2 3 4 5 6 7 8 9 10 11 12
776
FTUS45 KPSR 131139
TAFBLH
TAF
KBLH 131139Z 1312/1412 VRB03KT P6SM FEW250
     FM132000 36006KT P6SM FEW250
     FM140300 31005KT P6SM SKC=

USA.gov is the U.S. government's official web portal to all federal, state and local government web resources and services.